ADDS METAR Data INFO
IDs: Format: Raw Decoded Include TAF

Data at: 1146 UTC 17 Jul 2018

KMEB 171057Z AUTO 22006KT 7SM FEW008 SCT013 24/23 A3000 RMK AO2 T02390228
KMEB 171052Z AUTO 22007KT 7SM BKN010 24/23 A3000 RMK AO2 SLP155 T02390228
KMEB 171014Z AUTO 21004KT 8SM BKN013 23/23 A2999 RMK AO2 T02330228
KMEB 170952Z AUTO 21005KT 7SM FEW011 23/22 A2999 RMK AO2 SLP152 T02330222
KMEB 170941Z AUTO 21006KT 8SM SCT011 23/22 A2999 RMK AO2 T02330222
KMEB 170933Z AUTO 21006KT 8SM BKN011 23/22 A2999 RMK AO2 T02330222
KMEB 170852Z AUTO 20004KT 8SM CLR 23/22 A2998 RMK AO2 SLP150 T02280217 55012
KMEB 170752Z AUTO 29003KT 10SM FEW014 23/22 A2998 RMK AO2 SLP148 T02330217
KMEB 170652Z AUTO 00000KT 10SM CLR 24/22 A3001 RMK AO2 SLP158 T02390217
KMEB 170552Z AUTO 21004KT 10SM FEW018 24/22 A3002 RMK AO2 SLP162 T02440217 10300 20244 50001
KMEB 170452Z AUTO 21007KT 10SM FEW033 26/22 A3003 RMK AO2 SLP164 T02560217 403280222
KMEB 170352Z AUTO 19005KT 10SM CLR 25/22 A3002 RMK AO2 SLP162 T02500217
KMEB 170252Z AUTO 20007KT 10SM CLR 27/21 A3002 RMK AO2 SLP161 T02670211 51008
KMEB 170152Z AUTO 19007KT 10SM FEW049 28/21 A3001 RMK AO2 SLP160 T02780206
KMEB 170052Z AUTO 18006KT 10SM CLR 29/21 A3000 RMK AO2 SLP156 T02890211
KMEB 162352Z AUTO 18009KT 10SM CLR 30/21 A2999 RMK AO2 SLP153 T03000211 10328 20300 55001
KMEB 162252Z AUTO 18007KT 10SM CLR 31/21 A2998 RMK AO2 SLP149 T03110206
KMEB 162152Z AUTO 18009KT 10SM CLR 32/21 A2999 RMK AO2 SLP151 T03220211
KMEB 162052Z AUTO 20008KT 10SM CLR 32/22 A3000 RMK AO2 SLP154 T03220222 56019
KMEB 161952Z AUTO 21008KT 10SM CLR 31/22 A3001 RMK AO2 SLP158 T03110222
KMEB 161852Z AUTO 19007KT 10SM CLR 31/23 A3002 RMK AO2 SLP164 T03110228
KMEB 161752Z AUTO 24005KT 10SM CLR 31/23 A3005 RMK AO2 SLP173 T03060228 10311 20233 58006
KMEB 161652Z AUTO 27006KT 10SM CLR 31/23 A3007 RMK AO2 SLP178 T03060228
KMEB 161552Z AUTO 26006KT 10SM CLR 30/23 A3007 RMK AO2 SLP180 T03000228
KMEB 161452Z AUTO 22007KT 10SM CLR 28/22 A3007 RMK AO2 SLP179 T02830222 51004
KMEB 161352Z AUTO 23005KT 10SM CLR 27/21 A3007 RMK AO2 SLP179 T02720211
KMEB 161252Z AUTO 22006KT 10SM CLR 25/21 A3007 RMK AO2 SLP178 T02500206
KMEB 161152Z AUTO 18004KT 10SM CLR 23/21 A3006 RMK AO2 SLP176 T02330206 10239 20222 53006
KMEB 161052Z AUTO 00000KT 10SM CLR 23/20 A3006 RMK AO2 SLP174 T02280200
KMEB 160952Z AUTO 22004KT 10SM CLR 22/20 A3005 RMK AO2 SLP171 T02220200
KMEB 160852Z AUTO 22003KT 10SM CLR 23/20 A3004 RMK AO2 SLP170 T02280200 56008
KMEB 160752Z AUTO 22003KT 10SM CLR 23/20 A3005 RMK AO2 SLP171 T02280200
KMEB 160652Z AUTO 20003KT 10SM CLR 23/20 A3005 RMK AO2 SLP173 T02330200
KMEB 160552Z AUTO 21004KT 10SM SCT065 24/20 A3007 RMK AO2 SLP178 T02390200 10311 20239 51001
KMEB 160452Z AUTO 21005KT 10SM CLR 24/20 A3007 RMK AO2 SLP178 T02440200 403500189
KMEB 160352Z AUTO 20006KT 10SM CLR 26/20 A3007 RMK AO2 SLP178 T02560200
KMEB 160252Z AUTO 19009KT 10SM CLR 27/21 A3006 RMK AO2 SLP177 T02670206 53018
KMEB 160152Z AUTO 18009KT 10SM CLR 28/21 A3003 RMK AO2 SLP167 T02780211
KMEB 160052Z AUTO 18006KT 10SM CLR 29/20 A3002 RMK AO2 SLP162 T02890200
KMEB 152352Z AUTO 18009KT 10SM CLR 31/19 A3001 RMK AO2 SLP159 T03110194 10350 20311 53002